sensor_id;sensor_type;location;lat;lon;timestamp;P1;durP1;ratioP1;P2;durP2;ratioP2
6053;SDS011;3055;50.886;14.814;2022-08-19T00:01:56;9.27;;;8.47;;
6053;SDS011;3055;50.886;14.814;2022-08-19T00:04:24;10.37;;;8.87;;
6053;SDS011;3055;50.886;14.814;2022-08-19T00:06:53;10.10;;;9.10;;
6053;SDS011;3055;50.886;14.814;2022-08-19T00:09:21;11.03;;;8.77;;
6053;SDS011;3055;50.886;14.814;2022-08-19T00:11:49;12.47;;;8.70;;
6053;SDS011;3055;50.886;14.814;2022-08-19T00:14:17;9.07;;;8.00;;
6053;SDS011;3055;50.886;14.814;2022-08-19T00:16:47;9.93;;;7.63;;
6053;SDS011;3055;50.886;14.814;2022-08-19T00:19:16;7.17;;;6.17;;
6053;SDS011;3055;50.886;14.814;2022-08-19T00:21:43;7.40;;;5.50;;
6053;SDS011;3055;50.886;14.814;2022-08-19T00:24:11;7.10;;;5.40;;
6053;SDS011;3055;50.886;14.814;2022-08-19T00:26:40;7.60;;;4.80;;
6053;SDS011;3055;50.886;14.814;2022-08-19T00:29:09;5.37;;;3.33;;
6053;SDS011;3055;50.886;14.814;2022-08-19T00:31:38;5.30;;;2.60;;
6053;SDS011;3055;50.886;14.814;2022-08-19T00:34:07;5.43;;;2.70;;
6053;SDS011;3055;50.886;14.814;2022-08-19T00:36:34;2.87;;;2.10;;
6053;SDS011;3055;50.886;14.814;2022-08-19T00:39:03;6.13;;;2.60;;
6053;SDS011;3055;50.886;14.814;2022-08-19T00:41:30;5.33;;;2.67;;
6053;SDS011;3055;50.886;14.814;2022-08-19T00:43:58;4.13;;;2.53;;
6053;SDS011;3055;50.886;14.814;2022-08-19T00:46:27;4.30;;;3.20;;
6053;SDS011;3055;50.886;14.814;2022-08-19T00:48:55;5.73;;;3.00;;
6053;SDS011;3055;50.886;14.814;2022-08-19T00:51:25;4.67;;;3.20;;
6053;SDS011;3055;50.886;14.814;2022-08-19T00:53:54;3.60;;;3.30;;
6053;SDS011;3055;50.886;14.814;2022-08-19T00:56:23;5.20;;;3.20;;
6053;SDS011;3055;50.886;14.814;2022-08-19T00:58:51;4.27;;;3.23;;
6053;SDS011;3055;50.886;14.814;2022-08-19T01:01:19;4.83;;;3.23;;
6053;SDS011;3055;50.886;14.814;2022-08-19T01:03:46;5.40;;;3.10;;
6053;SDS011;3055;50.886;14.814;2022-08-19T01:06:13;3.77;;;2.87;;
6053;SDS011;3055;50.886;14.814;2022-08-19T01:08:41;3.60;;;2.50;;
6053;SDS011;3055;50.886;14.814;2022-08-19T01:11:09;2.77;;;2.43;;
6053;SDS011;3055;50.886;14.814;2022-08-19T01:13:36;3.03;;;2.30;;
6053;SDS011;3055;50.886;14.814;2022-08-19T01:16:04;3.40;;;2.40;;
6053;SDS011;3055;50.886;14.814;2022-08-19T01:18:35;3.43;;;2.23;;
6053;SDS011;3055;50.886;14.814;2022-08-19T01:21:08;3.10;;;2.67;;
6053;SDS011;3055;50.886;14.814;2022-08-19T01:23:42;3.60;;;2.10;;
6053;SDS011;3055;50.886;14.814;2022-08-19T01:26:10;3.93;;;2.73;;
6053;SDS011;3055;50.886;14.814;2022-08-19T01:28:39;4.33;;;2.53;;
6053;SDS011;3055;50.886;14.814;2022-08-19T01:31:08;4.03;;;2.60;;
6053;SDS011;3055;50.886;14.814;2022-08-19T01:33:38;3.27;;;1.90;;
6053;SDS011;3055;50.886;14.814;2022-08-19T01:36:07;6.67;;;2.60;;
6053;SDS011;3055;50.886;14.814;2022-08-19T01:38:37;5.10;;;2.50;;
6053;SDS011;3055;50.886;14.814;2022-08-19T01:41:07;4.50;;;2.50;;
6053;SDS011;3055;50.886;14.814;2022-08-19T01:43:35;5.53;;;2.70;;
6053;SDS011;3055;50.886;14.814;2022-08-19T01:46:03;4.03;;;2.30;;
6053;SDS011;3055;50.886;14.814;2022-08-19T01:48:33;8.17;;;2.73;;
6053;SDS011;3055;50.886;14.814;2022-08-19T01:51:00;4.90;;;2.07;;
6053;SDS011;3055;50.886;14.814;2022-08-19T01:53:28;5.63;;;2.57;;
6053;SDS011;3055;50.886;14.814;2022-08-19T01:55:55;5.17;;;2.40;;
6053;SDS011;3055;50.886;14.814;2022-08-19T01:58:26;2.77;;;2.40;;
6053;SDS011;3055;50.886;14.814;2022-08-19T02:00:57;5.53;;;2.27;;
6053;SDS011;3055;50.886;14.814;2022-08-19T02:03:24;2.20;;;1.93;;
6053;SDS011;3055;50.886;14.814;2022-08-19T02:05:55;3.23;;;2.10;;
6053;SDS011;3055;50.886;14.814;2022-08-19T02:08:24;4.97;;;2.40;;
6053;SDS011;3055;50.886;14.814;2022-08-19T02:10:52;4.80;;;2.53;;
6053;SDS011;3055;50.886;14.814;2022-08-19T02:13:19;6.97;;;2.47;;
6053;SDS011;3055;50.886;14.814;2022-08-19T02:15:48;3.77;;;2.33;;
6053;SDS011;3055;50.886;14.814;2022-08-19T02:18:15;5.23;;;2.77;;
6053;SDS011;3055;50.886;14.814;2022-08-19T02:20:43;6.10;;;3.70;;
6053;SDS011;3055;50.886;14.814;2022-08-19T02:23:12;5.80;;;5.13;;
6053;SDS011;3055;50.886;14.814;2022-08-19T02:25:40;7.07;;;6.40;;
6053;SDS011;3055;50.886;14.814;2022-08-19T02:28:07;8.03;;;6.77;;
6053;SDS011;3055;50.886;14.814;2022-08-19T02:30:34;8.50;;;6.70;;
6053;SDS011;3055;50.886;14.814;2022-08-19T02:33:03;11.27;;;9.27;;
6053;SDS011;3055;50.886;14.814;2022-08-19T02:35:30;9.97;;;8.97;;
6053;SDS011;3055;50.886;14.814;2022-08-19T02:37:57;12.73;;;10.70;;
6053;SDS011;3055;50.886;14.814;2022-08-19T02:40:47;12.47;;;11.27;;
6053;SDS011;3055;50.886;14.814;2022-08-19T02:43:15;12.27;;;11.17;;
6053;SDS011;3055;50.886;14.814;2022-08-19T02:45:42;11.63;;;10.53;;
6053;SDS011;3055;50.886;14.814;2022-08-19T02:48:11;14.57;;;13.17;;
6053;SDS011;3055;50.886;14.814;2022-08-19T02:50:39;16.27;;;12.43;;
6053;SDS011;3055;50.886;14.814;2022-08-19T02:53:06;13.37;;;12.07;;
6053;SDS011;3055;50.886;14.814;2022-08-19T02:55:33;14.07;;;12.87;;
6053;SDS011;3055;50.886;14.814;2022-08-19T02:58:00;13.97;;;12.73;;
6053;SDS011;3055;50.886;14.814;2022-08-19T03:00:27;14.17;;;12.77;;
6053;SDS011;3055;50.886;14.814;2022-08-19T03:02:54;15.07;;;13.67;;
6053;SDS011;3055;50.886;14.814;2022-08-19T03:05:23;18.43;;;14.10;;
6053;SDS011;3055;50.886;14.814;2022-08-19T03:07:50;14.93;;;13.53;;
6053;SDS011;3055;50.886;14.814;2022-08-19T03:10:17;14.80;;;13.47;;
6053;SDS011;3055;50.886;14.814;2022-08-19T03:12:45;14.73;;;13.33;;
6053;SDS011;3055;50.886;14.814;2022-08-19T03:15:12;14.70;;;13.20;;
6053;SDS011;3055;50.886;14.814;2022-08-19T03:17:39;15.70;;;14.20;;
6053;SDS011;3055;50.886;14.814;2022-08-19T03:20:06;16.00;;;14.40;;
6053;SDS011;3055;50.886;14.814;2022-08-19T03:22:35;15.20;;;13.60;;
6053;SDS011;3055;50.886;14.814;2022-08-19T03:25:02;15.63;;;14.23;;
6053;SDS011;3055;50.886;14.814;2022-08-19T03:27:30;14.53;;;13.23;;
6053;SDS011;3055;50.886;14.814;2022-08-19T03:29:57;17.30;;;15.57;;
6053;SDS011;3055;50.886;14.814;2022-08-19T03:32:24;17.77;;;16.17;;
6053;SDS011;3055;50.886;14.814;2022-08-19T03:34:51;16.93;;;15.23;;
6053;SDS011;3055;50.886;14.814;2022-08-19T03:37:18;15.70;;;14.30;;
6053;SDS011;3055;50.886;14.814;2022-08-19T03:39:46;16.93;;;15.43;;
6053;SDS011;3055;50.886;14.814;2022-08-19T03:42:13;17.77;;;16.17;;
6053;SDS011;3055;50.886;14.814;2022-08-19T03:44:42;17.57;;;15.87;;
6053;SDS011;3055;50.886;14.814;2022-08-19T03:47:09;19.00;;;17.30;;
6053;SDS011;3055;50.886;14.814;2022-08-19T03:49:40;17.33;;;15.83;;
6053;SDS011;3055;50.886;14.814;2022-08-19T03:52:07;17.13;;;15.63;;
6053;SDS011;3055;50.886;14.814;2022-08-19T03:54:35;18.13;;;16.33;;
6053;SDS011;3055;50.886;14.814;2022-08-19T03:57:05;19.10;;;17.20;;
6053;SDS011;3055;50.886;14.814;2022-08-19T03:59:34;19.77;;;17.73;;
6053;SDS011;3055;50.886;14.814;2022-08-19T04:02:05;18.83;;;17.03;;
6053;SDS011;3055;50.886;14.814;2022-08-19T04:04:34;17.77;;;16.07;;
6053;SDS011;3055;50.886;14.814;2022-08-19T04:07:02;19.13;;;17.40;;
6053;SDS011;3055;50.886;14.814;2022-08-19T04:09:29;18.33;;;16.53;;
6053;SDS011;3055;50.886;14.814;2022-08-19T04:11:58;18.80;;;16.90;;
6053;SDS011;3055;50.886;14.814;2022-08-19T04:14:27;19.43;;;17.47;;
6053;SDS011;3055;50.886;14.814;2022-08-19T04:16:56;22.97;;;19.57;;
6053;SDS011;3055;50.886;14.814;2022-08-19T04:19:23;20.67;;;18.60;;
6053;SDS011;3055;50.886;14.814;2022-08-19T04:21:51;18.90;;;17.20;;
6053;SDS011;3055;50.886;14.814;2022-08-19T04:24:20;20.63;;;18.53;;
6053;SDS011;3055;50.886;14.814;2022-08-19T04:26:48;19.00;;;17.10;;
6053;SDS011;3055;50.886;14.814;2022-08-19T04:29:16;17.93;;;16.30;;
6053;SDS011;3055;50.886;14.814;2022-08-19T04:31:48;18.53;;;15.63;;
6053;SDS011;3055;50.886;14.814;2022-08-19T04:34:16;20.17;;;18.10;;
6053;SDS011;3055;50.886;14.814;2022-08-19T04:36:47;17.70;;;16.10;;
6053;SDS011;3055;50.886;14.814;2022-08-19T04:39:17;16.87;;;15.37;;
6053;SDS011;3055;50.886;14.814;2022-08-19T04:41:47;18.10;;;16.50;;
6053;SDS011;3055;50.886;14.814;2022-08-19T04:44:32;18.53;;;16.73;;
6053;SDS011;3055;50.886;14.814;2022-08-19T04:47:02;17.77;;;16.23;;
6053;SDS011;3055;50.886;14.814;2022-08-19T04:49:31;18.37;;;15.23;;
6053;SDS011;3055;50.886;14.814;2022-08-19T04:51:58;17.73;;;15.97;;
6053;SDS011;3055;50.886;14.814;2022-08-19T04:54:25;19.07;;;17.20;;
6053;SDS011;3055;50.886;14.814;2022-08-19T04:56:52;17.80;;;16.03;;
6053;SDS011;3055;50.886;14.814;2022-08-19T04:59:20;15.40;;;14.00;;
6053;SDS011;3055;50.886;14.814;2022-08-19T05:01:48;12.50;;;11.40;;
6053;SDS011;3055;50.886;14.814;2022-08-19T05:04:17;15.37;;;11.80;;
6053;SDS011;3055;50.886;14.814;2022-08-19T05:06:45;13.73;;;12.40;;
6053;SDS011;3055;50.886;14.814;2022-08-19T05:09:13;14.83;;;13.30;;
6053;SDS011;3055;50.886;14.814;2022-08-19T05:11:42;12.17;;;10.97;;
6053;SDS011;3055;50.886;14.814;2022-08-19T05:14:09;13.37;;;12.17;;
6053;SDS011;3055;50.886;14.814;2022-08-19T05:16:37;12.20;;;11.00;;
6053;SDS011;3055;50.886;14.814;2022-08-19T05:19:05;11.00;;;9.87;;
6053;SDS011;3055;50.886;14.814;2022-08-19T05:21:50;11.43;;;8.63;;
6053;SDS011;3055;50.886;14.814;2022-08-19T05:24:35;8.60;;;7.70;;
6053;SDS011;3055;50.886;14.814;2022-08-19T05:27:03;6.87;;;6.23;;
6053;SDS011;3055;50.886;14.814;2022-08-19T05:29:31;6.43;;;5.83;;
6053;SDS011;3055;50.886;14.814;2022-08-19T05:31:59;8.67;;;6.47;;
6053;SDS011;3055;50.886;14.814;2022-08-19T05:34:27;8.43;;;6.43;;
6053;SDS011;3055;50.886;14.814;2022-08-19T05:36:57;7.03;;;6.40;;
6053;SDS011;3055;50.886;14.814;2022-08-19T05:39:27;9.10;;;6.87;;
6053;SDS011;3055;50.886;14.814;2022-08-19T05:41:56;12.83;;;7.77;;
6053;SDS011;3055;50.886;14.814;2022-08-19T05:44:25;9.67;;;8.27;;
6053;SDS011;3055;50.886;14.814;2022-08-19T05:46:56;9.77;;;7.77;;
6053;SDS011;3055;50.886;14.814;2022-08-19T05:49:24;9.57;;;6.90;;
6053;SDS011;3055;50.886;14.814;2022-08-19T05:51:53;8.07;;;6.60;;
6053;SDS011;3055;50.886;14.814;2022-08-19T05:54:22;12.37;;;6.37;;
6053;SDS011;3055;50.886;14.814;2022-08-19T05:56:50;7.03;;;6.30;;
6053;SDS011;3055;50.886;14.814;2022-08-19T05:59:19;9.40;;;6.57;;
6053;SDS011;3055;50.886;14.814;2022-08-19T06:01:47;6.80;;;6.10;;
6053;SDS011;3055;50.886;14.814;2022-08-19T06:04:16;8.00;;;6.87;;
6053;SDS011;3055;50.886;14.814;2022-08-19T06:06:44;9.60;;;6.23;;
6053;SDS011;3055;50.886;14.814;2022-08-19T06:09:12;9.00;;;7.50;;
6053;SDS011;3055;50.886;14.814;2022-08-19T06:11:41;10.07;;;7.47;;
6053;SDS011;3055;50.886;14.814;2022-08-19T06:14:10;9.80;;;8.80;;
6053;SDS011;3055;50.886;14.814;2022-08-19T06:16:39;10.70;;;7.87;;
6053;SDS011;3055;50.886;14.814;2022-08-19T06:19:08;11.37;;;7.90;;
6053;SDS011;3055;50.886;14.814;2022-08-19T06:21:37;10.73;;;8.30;;
6053;SDS011;3055;50.886;14.814;2022-08-19T06:24:06;9.03;;;8.13;;
6053;SDS011;3055;50.886;14.814;2022-08-19T06:26:35;8.03;;;7.23;;
6053;SDS011;3055;50.886;14.814;2022-08-19T06:29:05;11.10;;;8.43;;
6053;SDS011;3055;50.886;14.814;2022-08-19T06:31:33;11.43;;;8.27;;
6053;SDS011;3055;50.886;14.814;2022-08-19T06:34:02;9.47;;;8.67;;
6053;SDS011;3055;50.886;14.814;2022-08-19T06:36:31;8.83;;;8.03;;
6053;SDS011;3055;50.886;14.814;2022-08-19T06:38:59;9.07;;;8.13;;
6053;SDS011;3055;50.886;14.814;2022-08-19T06:41:27;9.33;;;8.03;;
6053;SDS011;3055;50.886;14.814;2022-08-19T06:43:55;11.13;;;8.50;;
6053;SDS011;3055;50.886;14.814;2022-08-19T06:46:23;8.57;;;7.83;;
6053;SDS011;3055;50.886;14.814;2022-08-19T06:48:51;10.87;;;9.50;;
6053;SDS011;3055;50.886;14.814;2022-08-19T06:51:20;11.03;;;9.83;;
6053;SDS011;3055;50.886;14.814;2022-08-19T06:53:49;10.00;;;9.10;;
6053;SDS011;3055;50.886;14.814;2022-08-19T06:56:19;11.57;;;10.57;;
6053;SDS011;3055;50.886;14.814;2022-08-19T06:58:50;10.93;;;10.03;;
6053;SDS011;3055;50.886;14.814;2022-08-19T07:01:18;12.93;;;10.37;;
6053;SDS011;3055;50.886;14.814;2022-08-19T07:03:47;11.30;;;9.93;;
6053;SDS011;3055;50.886;14.814;2022-08-19T07:06:15;13.27;;;11.33;;
6053;SDS011;3055;50.886;14.814;2022-08-19T07:08:45;15.87;;;12.77;;
6053;SDS011;3055;50.886;14.814;2022-08-19T07:11:13;13.13;;;11.93;;
6053;SDS011;3055;50.886;14.814;2022-08-19T07:13:43;13.20;;;12.00;;
6053;SDS011;3055;50.886;14.814;2022-08-19T07:16:12;15.23;;;13.63;;
6053;SDS011;3055;50.886;14.814;2022-08-19T07:18:41;15.77;;;14.07;;
6053;SDS011;3055;50.886;14.814;2022-08-19T07:21:11;18.40;;;16.70;;
6053;SDS011;3055;50.886;14.814;2022-08-19T07:23:40;16.90;;;15.17;;
6053;SDS011;3055;50.886;14.814;2022-08-19T07:26:08;18.83;;;16.93;;
6053;SDS011;3055;50.886;14.814;2022-08-19T07:28:36;17.73;;;15.83;;
6053;SDS011;3055;50.886;14.814;2022-08-19T07:31:04;17.80;;;15.93;;
6053;SDS011;3055;50.886;14.814;2022-08-19T07:33:32;18.73;;;16.77;;
6053;SDS011;3055;50.886;14.814;2022-08-19T07:36:02;19.53;;;17.20;;
6053;SDS011;3055;50.886;14.814;2022-08-19T07:38:31;17.67;;;16.00;;
6053;SDS011;3055;50.886;14.814;2022-08-19T07:40:59;18.87;;;17.07;;
6053;SDS011;3055;50.886;14.814;2022-08-19T07:43:27;16.63;;;15.03;;
6053;SDS011;3055;50.886;14.814;2022-08-19T07:45:54;18.53;;;16.70;;
6053;SDS011;3055;50.886;14.814;2022-08-19T07:48:22;17.70;;;16.10;;
6053;SDS011;3055;50.886;14.814;2022-08-19T07:50:50;17.47;;;15.67;;
6053;SDS011;3055;50.886;14.814;2022-08-19T07:53:17;17.03;;;15.33;;
6053;SDS011;3055;50.886;14.814;2022-08-19T07:55:46;17.50;;;15.90;;
6053;SDS011;3055;50.886;14.814;2022-08-19T07:58:14;17.00;;;15.27;;
6053;SDS011;3055;50.886;14.814;2022-08-19T08:00:43;17.90;;;16.20;;
6053;SDS011;3055;50.886;14.814;2022-08-19T08:03:12;17.97;;;15.30;;
6053;SDS011;3055;50.886;14.814;2022-08-19T08:05:39;17.67;;;16.07;;
6053;SDS011;3055;50.886;14.814;2022-08-19T08:08:24;17.87;;;15.97;;
6053;SDS011;3055;50.886;14.814;2022-08-19T08:11:10;17.80;;;16.00;;
6053;SDS011;3055;50.886;14.814;2022-08-19T08:13:38;17.70;;;15.90;;
6053;SDS011;3055;50.886;14.814;2022-08-19T08:16:06;16.83;;;15.00;;
6053;SDS011;3055;50.886;14.814;2022-08-19T08:18:33;17.40;;;15.63;;
6053;SDS011;3055;50.886;14.814;2022-08-19T08:21:06;18.23;;;16.43;;
6053;SDS011;3055;50.886;14.814;2022-08-19T08:23:33;16.97;;;15.37;;
6053;SDS011;3055;50.886;14.814;2022-08-19T08:26:00;17.93;;;16.23;;
6053;SDS011;3055;50.886;14.814;2022-08-19T08:28:31;17.23;;;15.63;;
6053;SDS011;3055;50.886;14.814;2022-08-19T08:30:58;17.43;;;15.40;;
6053;SDS011;3055;50.886;14.814;2022-08-19T08:33:26;17.43;;;15.63;;
6053;SDS011;3055;50.886;14.814;2022-08-19T08:35:54;18.40;;;16.40;;
6053;SDS011;3055;50.886;14.814;2022-08-19T08:38:22;18.23;;;16.47;;
6053;SDS011;3055;50.886;14.814;2022-08-19T08:40:50;17.63;;;15.93;;
6053;SDS011;3055;50.886;14.814;2022-08-19T08:43:23;17.33;;;15.73;;
6053;SDS011;3055;50.886;14.814;2022-08-19T08:45:56;17.70;;;15.90;;
6053;SDS011;3055;50.886;14.814;2022-08-19T08:48:30;17.63;;;15.93;;
6053;SDS011;3055;50.886;14.814;2022-08-19T08:51:05;17.57;;;15.77;;
6053;SDS011;3055;50.886;14.814;2022-08-19T08:53:37;17.57;;;15.77;;
6053;SDS011;3055;50.886;14.814;2022-08-19T08:56:06;17.33;;;14.37;;
6053;SDS011;3055;50.886;14.814;2022-08-19T08:58:40;17.13;;;15.33;;
6053;SDS011;3055;50.886;14.814;2022-08-19T09:01:14;18.47;;;15.67;;
6053;SDS011;3055;50.886;14.814;2022-08-19T09:03:41;16.33;;;14.83;;
6053;SDS011;3055;50.886;14.814;2022-08-19T09:06:12;15.30;;;13.90;;
6053;SDS011;3055;50.886;14.814;2022-08-19T09:08:44;11.93;;;10.67;;
6053;SDS011;3055;50.886;14.814;2022-08-19T09:11:19;9.90;;;9.00;;
6053;SDS011;3055;50.886;14.814;2022-08-19T09:13:53;9.23;;;8.33;;
6053;SDS011;3055;50.886;14.814;2022-08-19T09:16:34;9.67;;;8.27;;
6053;SDS011;3055;50.886;14.814;2022-08-19T09:19:04;7.80;;;7.10;;
6053;SDS011;3055;50.886;14.814;2022-08-19T09:21:33;8.27;;;7.47;;
6053;SDS011;3055;50.886;14.814;2022-08-19T09:24:00;7.47;;;6.77;;
6053;SDS011;3055;50.886;14.814;2022-08-19T09:26:29;6.70;;;6.10;;
6053;SDS011;3055;50.886;14.814;2022-08-19T09:28:57;7.30;;;6.70;;
6053;SDS011;3055;50.886;14.814;2022-08-19T09:31:28;7.77;;;6.77;;
6053;SDS011;3055;50.886;14.814;2022-08-19T09:33:57;6.77;;;6.20;;
6053;SDS011;3055;50.886;14.814;2022-08-19T09:36:25;6.67;;;6.07;;
6053;SDS011;3055;50.886;14.814;2022-08-19T09:38:57;7.03;;;5.93;;
6053;SDS011;3055;50.886;14.814;2022-08-19T09:41:26;7.00;;;5.30;;
6053;SDS011;3055;50.886;14.814;2022-08-19T09:43:54;5.77;;;5.27;;
6053;SDS011;3055;50.886;14.814;2022-08-19T09:46:23;5.27;;;4.73;;
6053;SDS011;3055;50.886;14.814;2022-08-19T09:48:51;5.70;;;5.20;;
6053;SDS011;3055;50.886;14.814;2022-08-19T09:51:20;5.80;;;5.30;;
6053;SDS011;3055;50.886;14.814;2022-08-19T09:53:49;5.80;;;5.17;;
6053;SDS011;3055;50.886;14.814;2022-08-19T09:56:19;5.93;;;5.00;;
6053;SDS011;3055;50.886;14.814;2022-08-19T09:58:47;5.67;;;5.03;;
6053;SDS011;3055;50.886;14.814;2022-08-19T10:01:16;5.17;;;4.77;;
6053;SDS011;3055;50.886;14.814;2022-08-19T10:03:46;5.20;;;4.77;;
6053;SDS011;3055;50.886;14.814;2022-08-19T10:06:14;5.07;;;4.57;;
6053;SDS011;3055;50.886;14.814;2022-08-19T10:08:42;5.47;;;4.67;;
6053;SDS011;3055;50.886;14.814;2022-08-19T10:11:10;5.50;;;5.00;;
6053;SDS011;3055;50.886;14.814;2022-08-19T10:13:39;4.90;;;4.43;;
6053;SDS011;3055;50.886;14.814;2022-08-19T10:16:07;4.87;;;4.47;;
6053;SDS011;3055;50.886;14.814;2022-08-19T10:18:36;5.27;;;4.77;;
6053;SDS011;3055;50.886;14.814;2022-08-19T10:21:05;6.30;;;5.07;;
6053;SDS011;3055;50.886;14.814;2022-08-19T10:23:35;6.10;;;5.00;;
6053;SDS011;3055;50.886;14.814;2022-08-19T10:26:05;5.90;;;5.30;;
6053;SDS011;3055;50.886;14.814;2022-08-19T10:28:33;5.03;;;4.63;;
6053;SDS011;3055;50.886;14.814;2022-08-19T10:31:05;5.63;;;5.20;;
6053;SDS011;3055;50.886;14.814;2022-08-19T10:33:34;5.10;;;4.70;;
6053;SDS011;3055;50.886;14.814;2022-08-19T10:36:01;5.37;;;4.87;;
6053;SDS011;3055;50.886;14.814;2022-08-19T10:38:30;6.00;;;5.40;;
6053;SDS011;3055;50.886;14.814;2022-08-19T10:41:07;6.77;;;5.40;;
6053;SDS011;3055;50.886;14.814;2022-08-19T10:43:35;6.17;;;5.67;;
6053;SDS011;3055;50.886;14.814;2022-08-19T10:46:04;5.87;;;5.17;;
6053;SDS011;3055;50.886;14.814;2022-08-19T10:48:31;5.30;;;4.80;;
6053;SDS011;3055;50.886;14.814;2022-08-19T10:50:59;5.23;;;4.73;;
6053;SDS011;3055;50.886;14.814;2022-08-19T10:53:44;6.17;;;5.53;;
6053;SDS011;3055;50.886;14.814;2022-08-19T10:56:12;5.80;;;5.30;;
6053;SDS011;3055;50.886;14.814;2022-08-19T10:58:57;5.07;;;4.67;;
6053;SDS011;3055;50.886;14.814;2022-08-19T11:01:24;5.83;;;5.23;;
6053;SDS011;3055;50.886;14.814;2022-08-19T11:03:51;5.17;;;4.70;;
6053;SDS011;3055;50.886;14.814;2022-08-19T11:06:18;5.13;;;4.73;;
6053;SDS011;3055;50.886;14.814;2022-08-19T11:08:45;5.37;;;4.87;;
6053;SDS011;3055;50.886;14.814;2022-08-19T11:11:14;5.37;;;4.97;;
6053;SDS011;3055;50.886;14.814;2022-08-19T11:13:42;7.30;;;5.63;;
6053;SDS011;3055;50.886;14.814;2022-08-19T11:16:11;6.10;;;5.60;;
6053;SDS011;3055;50.886;14.814;2022-08-19T11:18:41;6.07;;;5.47;;
6053;SDS011;3055;50.886;14.814;2022-08-19T11:21:11;5.97;;;5.40;;
6053;SDS011;3055;50.886;14.814;2022-08-19T11:23:42;5.37;;;4.87;;
6053;SDS011;3055;50.886;14.814;2022-08-19T11:26:09;5.73;;;5.23;;
6053;SDS011;3055;50.886;14.814;2022-08-19T11:28:38;5.67;;;5.17;;
6053;SDS011;3055;50.886;14.814;2022-08-19T11:31:08;5.67;;;5.17;;
6053;SDS011;3055;50.886;14.814;2022-08-19T11:33:36;5.83;;;5.33;;
6053;SDS011;3055;50.886;14.814;2022-08-19T11:36:04;6.23;;;5.53;;
6053;SDS011;3055;50.886;14.814;2022-08-19T11:38:41;6.40;;;5.80;;
6053;SDS011;3055;50.886;14.814;2022-08-19T11:41:08;7.07;;;6.47;;
6053;SDS011;3055;50.886;14.814;2022-08-19T11:43:38;6.30;;;5.80;;
6053;SDS011;3055;50.886;14.814;2022-08-19T11:46:05;6.97;;;6.37;;
6053;SDS011;3055;50.886;14.814;2022-08-19T11:48:34;6.90;;;6.27;;
6053;SDS011;3055;50.886;14.814;2022-08-19T11:51:03;8.07;;;7.27;;
6053;SDS011;3055;50.886;14.814;2022-08-19T11:53:32;7.33;;;6.60;;
6053;SDS011;3055;50.886;14.814;2022-08-19T11:55:59;7.20;;;6.63;;
6053;SDS011;3055;50.886;14.814;2022-08-19T11:58:27;7.37;;;6.67;;
6053;SDS011;3055;50.886;14.814;2022-08-19T12:00:56;7.47;;;6.87;;
6053;SDS011;3055;50.886;14.814;2022-08-19T12:03:23;8.53;;;7.73;;
6053;SDS011;3055;50.886;14.814;2022-08-19T12:05:50;8.07;;;7.23;;
6053;SDS011;3055;50.886;14.814;2022-08-19T12:08:18;7.73;;;7.03;;
6053;SDS011;3055;50.886;14.814;2022-08-19T12:10:45;8.17;;;7.37;;
6053;SDS011;3055;50.886;14.814;2022-08-19T12:13:12;7.53;;;6.83;;
6053;SDS011;3055;50.886;14.814;2022-08-19T12:15:44;8.57;;;7.77;;
6053;SDS011;3055;50.886;14.814;2022-08-19T12:18:14;8.23;;;7.43;;
6053;SDS011;3055;50.886;14.814;2022-08-19T12:20:42;8.67;;;7.90;;
6053;SDS011;3055;50.886;14.814;2022-08-19T12:23:10;9.27;;;8.23;;
6053;SDS011;3055;50.886;14.814;2022-08-19T12:25:42;9.17;;;7.70;;
6053;SDS011;3055;50.886;14.814;2022-08-19T12:28:17;7.97;;;7.27;;
6053;SDS011;3055;50.886;14.814;2022-08-19T12:30:44;8.13;;;7.43;;
6053;SDS011;3055;50.886;14.814;2022-08-19T12:33:11;6.70;;;6.10;;
6053;SDS011;3055;50.886;14.814;2022-08-19T12:35:41;7.23;;;6.63;;
6053;SDS011;3055;50.886;14.814;2022-08-19T12:38:09;7.40;;;6.73;;
6053;SDS011;3055;50.886;14.814;2022-08-19T12:40:36;6.43;;;5.83;;
6053;SDS011;3055;50.886;14.814;2022-08-19T12:43:05;6.20;;;5.70;;
6053;SDS011;3055;50.886;14.814;2022-08-19T12:45:32;6.23;;;5.70;;
6053;SDS011;3055;50.886;14.814;2022-08-19T12:48:00;6.03;;;5.53;;
6053;SDS011;3055;50.886;14.814;2022-08-19T12:50:28;6.80;;;6.10;;
6053;SDS011;3055;50.886;14.814;2022-08-19T12:52:57;7.57;;;6.87;;
6053;SDS011;3055;50.886;14.814;2022-08-19T12:55:24;6.50;;;5.97;;
6053;SDS011;3055;50.886;14.814;2022-08-19T12:57:53;7.30;;;6.60;;
6053;SDS011;3055;50.886;14.814;2022-08-19T13:00:20;6.83;;;6.30;;
6053;SDS011;3055;50.886;14.814;2022-08-19T13:02:49;6.77;;;5.90;;
6053;SDS011;3055;50.886;14.814;2022-08-19T13:05:19;7.03;;;6.40;;
6053;SDS011;3055;50.886;14.814;2022-08-19T13:07:48;6.13;;;5.63;;
6053;SDS011;3055;50.886;14.814;2022-08-19T13:10:19;6.43;;;5.93;;
6053;SDS011;3055;50.886;14.814;2022-08-19T13:12:47;7.70;;;5.73;;
6053;SDS011;3055;50.886;14.814;2022-08-19T13:15:16;6.80;;;6.20;;
6053;SDS011;3055;50.886;14.814;2022-08-19T13:17:45;6.50;;;5.90;;
6053;SDS011;3055;50.886;14.814;2022-08-19T13:20:13;7.03;;;6.43;;
6053;SDS011;3055;50.886;14.814;2022-08-19T13:22:41;7.00;;;6.40;;
6053;SDS011;3055;50.886;14.814;2022-08-19T13:25:09;8.10;;;6.83;;
6053;SDS011;3055;50.886;14.814;2022-08-19T13:27:39;7.77;;;6.63;;
6053;SDS011;3055;50.886;14.814;2022-08-19T13:30:07;8.80;;;8.00;;
6053;SDS011;3055;50.886;14.814;2022-08-19T13:32:53;8.40;;;7.47;;
6053;SDS011;3055;50.886;14.814;2022-08-19T13:35:40;8.57;;;7.77;;
6053;SDS011;3055;50.886;14.814;2022-08-19T13:38:09;8.90;;;8.00;;
6053;SDS011;3055;50.886;14.814;2022-08-19T13:40:38;9.07;;;8.27;;
6053;SDS011;3055;50.886;14.814;2022-08-19T13:43:07;10.10;;;9.03;;
6053;SDS011;3055;50.886;14.814;2022-08-19T13:45:35;10.37;;;8.07;;
6053;SDS011;3055;50.886;14.814;2022-08-19T13:48:06;9.67;;;8.77;;
6053;SDS011;3055;50.886;14.814;2022-08-19T13:50:35;9.97;;;9.17;;
6053;SDS011;3055;50.886;14.814;2022-08-19T13:53:06;9.87;;;8.97;;
6053;SDS011;3055;50.886;14.814;2022-08-19T13:55:34;9.17;;;8.37;;
6053;SDS011;3055;50.886;14.814;2022-08-19T13:58:01;8.90;;;7.93;;
6053;SDS011;3055;50.886;14.814;2022-08-19T14:00:31;11.03;;;8.33;;
6053;SDS011;3055;50.886;14.814;2022-08-19T14:02:59;8.63;;;7.83;;
6053;SDS011;3055;50.886;14.814;2022-08-19T14:05:27;9.60;;;8.60;;
6053;SDS011;3055;50.886;14.814;2022-08-19T14:07:57;9.37;;;8.53;;
6053;SDS011;3055;50.886;14.814;2022-08-19T14:10:25;10.50;;;9.60;;
6053;SDS011;3055;50.886;14.814;2022-08-19T14:12:53;9.37;;;8.20;;
6053;SDS011;3055;50.886;14.814;2022-08-19T14:15:23;9.53;;;8.70;;
6053;SDS011;3055;50.886;14.814;2022-08-19T14:17:51;11.23;;;8.70;;
6053;SDS011;3055;50.886;14.814;2022-08-19T14:20:18;8.93;;;8.03;;
6053;SDS011;3055;50.886;14.814;2022-08-19T14:22:47;8.70;;;7.90;;
6053;SDS011;3055;50.886;14.814;2022-08-19T14:25:15;9.60;;;8.70;;
6053;SDS011;3055;50.886;14.814;2022-08-19T14:27:43;9.87;;;8.23;;
6053;SDS011;3055;50.886;14.814;2022-08-19T14:30:11;9.73;;;8.40;;
6053;SDS011;3055;50.886;14.814;2022-08-19T14:32:40;8.83;;;7.93;;
6053;SDS011;3055;50.886;14.814;2022-08-19T14:35:10;8.87;;;8.00;;
6053;SDS011;3055;50.886;14.814;2022-08-19T14:37:39;8.40;;;7.70;;
6053;SDS011;3055;50.886;14.814;2022-08-19T14:40:07;8.50;;;7.60;;
6053;SDS011;3055;50.886;14.814;2022-08-19T14:42:34;8.87;;;8.07;;
6053;SDS011;3055;50.886;14.814;2022-08-19T14:45:02;9.00;;;8.20;;
6053;SDS011;3055;50.886;14.814;2022-08-19T14:47:31;9.10;;;8.20;;
6053;SDS011;3055;50.886;14.814;2022-08-19T14:49:58;8.37;;;7.67;;
6053;SDS011;3055;50.886;14.814;2022-08-19T14:52:26;8.57;;;7.83;;
6053;SDS011;3055;50.886;14.814;2022-08-19T14:54:53;8.37;;;7.67;;
6053;SDS011;3055;50.886;14.814;2022-08-19T14:57:20;8.57;;;7.43;;
6053;SDS011;3055;50.886;14.814;2022-08-19T14:59:47;8.47;;;7.77;;
6053;SDS011;3055;50.886;14.814;2022-08-19T15:02:14;9.07;;;8.27;;